createdAt,value
2019-04-14T00:00:03.411Z,4.8
2019-04-14T00:15:04.362Z,4.8
2019-04-14T00:30:03.330Z,4.6
2019-04-14T00:45:03.134Z,4.6
2019-04-14T01:00:03.785Z,4.5
2019-04-14T01:15:03.133Z,4.4
2019-04-14T01:30:02.868Z,4.4
2019-04-14T01:45:03.603Z,4.3
2019-04-14T02:00:03.239Z,4.3
2019-04-14T02:15:02.953Z,4.3
2019-04-14T02:30:03.793Z,4.1
2019-04-14T02:45:34.639Z,4.2
2019-04-14T03:00:31.009Z,4.1
2019-04-14T03:15:31.597Z,4.2
2019-04-14T03:45:35.492Z,4.2
2019-04-14T04:00:03.384Z,4.2
2019-04-14T04:15:03.936Z,4.1
2019-04-14T04:30:03.744Z,4.1
2019-04-14T04:45:03.840Z,4.1
2019-04-14T05:00:03.018Z,4.1
2019-04-14T05:15:03.513Z,4
2019-04-14T05:30:02.902Z,4.1
2019-04-14T05:45:02.517Z,4.3
2019-04-14T06:00:03.766Z,4.4
2019-04-14T06:15:02.646Z,4.6
2019-04-14T06:30:03.461Z,4.8
2019-04-14T06:45:02.747Z,5.2
2019-04-14T07:00:02.604Z,6.2
2019-04-14T07:15:02.912Z,7.2
2019-04-14T07:30:03.306Z,6.9
2019-04-14T07:45:02.594Z,7.2
2019-04-14T08:00:02.900Z,8.1
2019-04-14T08:15:03.242Z,8.2
2019-04-14T08:30:02.662Z,8.6
2019-04-14T08:45:02.983Z,8.3
2019-04-14T09:00:03.304Z,8.9
2019-04-14T09:15:02.589Z,10.6
2019-04-14T09:30:02.977Z,11.3
2019-04-14T09:45:03.294Z,9.8
2019-04-14T10:00:02.572Z,10.1
2019-04-14T10:15:02.818Z,10.4
2019-04-14T10:30:03.482Z,10.4
2019-04-14T10:45:02.740Z,9.1
2019-04-14T11:00:03.055Z,9.1
2019-04-14T11:15:03.262Z,9.4
2019-04-14T11:30:02.741Z,9.8
2019-04-14T11:45:03.003Z,9.4
2019-04-14T12:00:03.292Z,9.3
2019-04-14T12:15:02.592Z,9.1
2019-04-14T12:30:03.509Z,9.6
2019-04-14T12:45:02.608Z,9.8
2019-04-14T13:00:02.859Z,10.1
2019-04-14T13:15:03.072Z,9.6
2019-04-14T13:30:03.396Z,9.7
2019-04-14T13:45:02.819Z,9.9
2019-04-14T14:00:03.144Z,9.9
2019-04-14T14:15:02.519Z,9.6
2019-04-14T14:30:03.048Z,9.3
2019-04-14T14:45:03.459Z,9.7
2019-04-14T15:00:02.811Z,9.9
2019-04-14T15:15:03.028Z,9.7
2019-04-14T15:30:03.471Z,9.5
2019-04-14T15:45:02.697Z,9.7
2019-04-14T16:00:03.058Z,9.6
2019-04-14T16:15:03.392Z,9.8
2019-04-14T16:30:02.853Z,9.2
2019-04-14T16:45:03.093Z,9.1
2019-04-14T17:00:03.388Z,9
2019-04-14T17:15:02.682Z,8.8
2019-04-14T17:30:02.987Z,8.6
2019-04-14T17:45:03.299Z,8.5
2019-04-14T18:00:02.576Z,8.5
2019-04-14T18:15:02.898Z,8.1
2019-04-14T18:30:03.322Z,8
2019-04-14T18:45:02.584Z,7.7
2019-04-14T19:00:02.891Z,7.4
2019-04-14T19:15:03.214Z,7.2
2019-04-14T19:30:02.596Z,7.2
2019-04-14T19:45:02.904Z,6.8
2019-04-14T20:00:03.203Z,6.6
2019-04-14T20:15:02.571Z,6.5
2019-04-14T20:30:02.976Z,6.4
2019-04-14T20:45:03.260Z,6.3
2019-04-14T21:00:02.581Z,6.2
2019-04-14T21:15:02.867Z,6.1
2019-04-14T21:30:03.229Z,6.1
2019-04-14T21:45:02.513Z,6.1
2019-04-14T22:00:02.910Z,6
2019-04-14T22:15:03.140Z,5.8
2019-04-14T22:30:02.505Z,5.9
2019-04-14T22:45:02.761Z,5.8
2019-04-14T23:00:03.317Z,5.8
2019-04-14T23:15:02.700Z,5.9
2019-04-14T23:30:02.936Z,5.9
2019-04-14T23:45:03.228Z,5.9
